Time;durP1;ratioP1;P1;durP2;ratioP2;P2;SDS_P1;SDS_P2;PMS_P1;PMS_P2;Temp;Humidity;BMP_temperature;BMP_pressure;BME280_temperature;BME280_humidity;BME280_pressure;Samples;Min_cycle;Max_cycle;Signal;HPM_P1;HPM_P2
2022/01/05 00:01:16;;;;;;;13.10;12.70;;;20.20;78.30;;;;;;5036363;28;20468;-49
2022/01/05 00:03:42;;;;;;;13.40;13.00;;;20.10;78.60;;;;;;5037611;28;20449;-50
2022/01/05 00:06:09;;;;;;;13.27;12.87;;;20.10;79.50;;;;;;5037272;28;20445;-50
2022/01/05 00:08:36;;;;;;;13.73;13.33;;;20.10;80.40;;;;;;5036813;28;20449;-50
2022/01/05 00:11:03;;;;;;;13.50;13.10;;;20.00;80.30;;;;;;5036464;28;20485;-50
2022/01/05 00:13:31;;;;;;;13.50;13.10;;;20.00;80.50;;;;;;5036542;28;20457;-49
2022/01/05 00:15:57;;;;;;;13.90;13.50;;;19.90;80.90;;;;;;5036222;28;20449;-49
2022/01/05 00:18:24;;;;;;;13.50;13.10;;;19.90;81.10;;;;;;5036598;28;20453;-47
2022/01/05 00:20:51;;;;;;;13.00;12.70;;;19.90;81.20;;;;;;5035973;28;20465;-49
2022/01/05 00:23:17;;;;;;;13.40;13.00;;;19.80;81.20;;;;;;5037415;28;20445;-50
2022/01/05 00:25:44;;;;;;;13.03;12.73;;;19.80;81.80;;;;;;5037088;28;20453;-51
2022/01/05 00:28:11;;;;;;;13.00;12.70;;;19.80;82.20;;;;;;5037231;28;20452;-50
2022/01/05 00:30:39;;;;;;;13.30;12.90;;;19.80;82.30;;;;;;5036906;28;20485;-50
2022/01/05 00:33:06;;;;;;;12.87;12.50;;;19.80;82.10;;;;;;5036915;28;20444;-48
2022/01/05 00:35:33;;;;;;;13.30;12.80;;;19.80;81.80;;;;;;5036546;28;20449;-48
2022/01/05 00:37:59;;;;;;;13.43;13.03;;;19.70;81.90;;;;;;5036124;28;20449;-49
2022/01/05 00:40:26;;;;;;;13.80;13.30;;;19.70;82.00;;;;;;5036549;28;20978;-50
2022/01/05 00:42:53;;;;;;;13.30;13.00;;;19.60;82.50;;;;;;5035564;28;20451;-50
2022/01/05 00:45:20;;;;;;;13.40;13.00;;;19.50;82.80;;;;;;5035611;28;20441;-48
2022/01/05 00:47:48;;;;;;;13.60;13.20;;;19.50;83.00;;;;;;5035078;28;20449;-49
2022/01/05 00:50:15;;;;;;;13.60;13.20;;;19.50;83.50;;;;;;5034385;28;20488;-48
2022/01/05 00:52:41;;;;;;;13.53;13.20;;;19.50;83.60;;;;;;5034339;28;20449;-50
2022/01/05 00:55:08;;;;;;;13.40;13.00;;;19.50;83.90;;;;;;5035186;28;20448;-50
2022/01/05 00:57:35;;;;;;;13.20;12.90;;;19.40;84.30;;;;;;5034367;28;20852;-47
2022/01/05 01:00:02;;;;;;;13.83;13.43;;;19.50;84.20;;;;;;5034907;28;20441;-46
2022/01/05 01:02:29;;;;;;;13.27;12.97;;;19.40;85.20;;;;;;5035282;28;20959;-49
2022/01/05 01:04:57;;;;;;;13.50;13.07;;;19.40;86.20;;;;;;5032626;28;20437;-50
2022/01/05 01:07:23;;;;;;;13.47;13.07;;;19.30;86.60;;;;;;5031324;28;20730;-51
2022/01/05 01:09:50;;;;;;;13.30;12.90;;;19.30;87.00;;;;;;5030991;28;20461;-49
2022/01/05 01:12:17;;;;;;;13.40;13.00;;;19.30;87.50;;;;;;5030965;28;20444;-48
2022/01/05 01:14:43;;;;;;;13.90;13.40;;;19.20;88.30;;;;;;5030854;28;20452;-48
2022/01/05 01:17:10;;;;;;;13.23;12.83;;;19.20;89.20;;;;;;5031147;28;20441;-47
2022/01/05 01:19:36;;;;;;;13.50;13.10;;;19.20;89.60;;;;;;5031089;28;20926;-46
2022/01/05 01:22:05;;;;;;;13.10;12.70;;;19.10;89.60;;;;;;5030865;28;20535;-52
2022/01/05 01:24:31;;;;;;;13.40;13.00;;;19.20;89.70;;;;;;5031057;28;20445;-50
2022/01/05 01:26:58;;;;;;;14.03;13.53;;;19.10;90.20;;;;;;5031090;28;20499;-48
2022/01/05 01:29:25;;;;;;;13.20;12.90;;;19.10;90.50;;;;;;5030768;28;20851;-47
2022/01/05 01:31:51;;;;;;;13.10;12.70;;;19.10;90.70;;;;;;5030744;28;21079;-47
2022/01/05 01:34:18;;;;;;;13.00;12.60;;;19.10;90.10;;;;;;5030962;28;20792;-46
2022/01/05 01:36:45;;;;;;;13.20;12.90;;;19.00;91.20;;;;;;5030937;28;20444;-47
2022/01/05 01:39:13;;;;;;;12.80;12.50;;;19.00;91.60;;;;;;5030893;28;20449;-50
2022/01/05 01:41:40;;;;;;;13.20;12.80;;;19.00;91.80;;;;;;5030605;28;20465;-49
2022/01/05 01:44:07;;;;;;;13.27;12.77;;;19.00;92.10;;;;;;5030825;28;20445;-46
2022/01/05 01:46:34;;;;;;;13.30;12.90;;;19.00;92.20;;;;;;5030542;28;20452;-46
2022/01/05 01:49:00;;;;;;;13.10;12.80;;;18.90;92.60;;;;;;5030916;28;20539;-47
2022/01/05 01:51:27;;;;;;;13.10;12.70;;;19.00;92.80;;;;;;5031979;28;20488;-53
2022/01/05 01:53:54;;;;;;;13.50;13.10;;;18.90;93.00;;;;;;5034437;28;20452;-48
2022/01/05 01:56:25;;;;;;;13.70;13.30;;;18.90;93.00;;;;;;5034298;28;20453;-46
2022/01/05 01:58:52;;;;;;;13.40;13.00;;;18.80;93.00;;;;;;5034412;28;20452;-47
2022/01/05 02:01:19;;;;;;;12.70;12.30;;;18.80;93.10;;;;;;5034842;28;20515;-47
2022/01/05 02:03:46;;;;;;;13.80;13.40;;;18.80;93.40;;;;;;5036074;28;20445;-48
2022/01/05 02:06:12;;;;;;;13.10;12.80;;;18.80;93.70;;;;;;5036960;28;20525;-47
2022/01/05 02:08:39;;;;;;;13.40;13.00;;;18.70;93.60;;;;;;5034208;28;20449;-47
2022/01/05 02:11:08;;;;;;;13.70;13.20;;;18.70;93.80;;;;;;5083955;22;20494;-50
2022/01/05 02:13:36;;;;;;;13.40;13.00;;;18.60;93.90;;;;;;5085694;28;20774;-52
2022/01/05 02:16:03;;;;;;;13.00;12.70;;;18.60;94.70;;;;;;5074574;28;20454;-50
2022/01/05 02:21:16;;;;;;;13.30;12.90;;;18.60;95.10;;;;;;5088845;28;20434;-49
2022/01/05 02:23:42;;;;;;;13.13;12.80;;;18.50;94.70;;;;;;5073697;28;20568;-50
2022/01/05 02:26:12;;;;;;;12.90;12.60;;;18.50;95.40;;;;;;5073771;28;20450;-50
2022/01/05 02:28:41;;;;;;;13.47;13.07;;;18.50;96.10;;;;;;5073782;28;20478;-52
2022/01/05 02:31:08;;;;;;;13.60;13.20;;;18.40;96.30;;;;;;5073581;28;20991;-53
2022/01/05 02:33:35;;;;;;;13.30;12.90;;;18.50;96.60;;;;;;5073384;28;20446;-55
2022/01/05 02:36:03;;;;;;;12.87;12.50;;;18.40;96.50;;;;;;5073236;28;20455;-52
2022/01/05 02:38:31;;;;;;;12.80;12.50;;;18.40;96.90;;;;;;5073582;28;20447;-49
2022/01/05 02:41:06;;;;;;;13.03;12.63;;;18.40;96.70;;;;;;5073062;28;20463;-53
2022/01/05 02:43:32;;;;;;;13.20;12.90;;;18.40;97.40;;;;;;5073316;28;20442;-50
2022/01/05 02:45:59;;;;;;;13.17;12.67;;;18.40;97.50;;;;;;5073333;28;20443;-52
2022/01/05 02:48:26;;;;;;;14.03;13.53;;;18.30;97.20;;;;;;5073052;28;20439;-53
2022/01/05 02:50:56;;;;;;;13.53;12.87;;;18.30;97.50;;;;;;5072965;28;20474;-51
2022/01/05 02:53:23;;;;;;;13.67;13.27;;;18.30;97.70;;;;;;5073171;28;20447;-51
2022/01/05 02:55:51;;;;;;;13.70;13.30;;;18.40;97.40;;;;;;5073226;28;20458;-53
2022/01/05 02:58:18;;;;;;;13.57;13.17;;;18.40;97.60;;;;;;5073087;28;20949;-52
2022/01/05 03:00:45;;;;;;;13.17;12.83;;;18.40;97.40;;;;;;5073164;28;20831;-51
2022/01/05 03:03:11;;;;;;;13.20;12.80;;;18.40;97.80;;;;;;5071539;28;20451;-50
2022/01/05 03:05:38;;;;;;;13.67;13.07;;;18.40;97.50;;;;;;5073052;28;20446;-53
2022/01/05 03:08:06;;;;;;;13.00;12.60;;;18.30;97.70;;;;;;5072928;28;20443;-51
2022/01/05 03:10:32;;;;;;;13.30;12.90;;;18.30;98.00;;;;;;5072705;28;20478;-52
2022/01/05 03:13:00;;;;;;;13.43;13.03;;;18.30;98.60;;;;;;5072425;28;20478;-50
2022/01/05 03:15:28;;;;;;;13.30;12.90;;;18.30;98.30;;;;;;5072999;28;20639;-50
2022/01/05 03:17:55;;;;;;;13.60;13.20;;;18.20;98.80;;;;;;5073824;28;20451;-52
2022/01/05 03:20:22;;;;;;;13.37;12.97;;;18.20;98.50;;;;;;5072462;28;20447;-52
2022/01/05 03:22:50;;;;;;;12.90;12.53;;;18.10;99.00;;;;;;5072454;28;21061;-50
2022/01/05 03:25:18;;;;;;;13.03;12.63;;;18.10;99.70;;;;;;5072731;28;20446;-53
2022/01/05 03:27:46;;;;;;;13.60;13.20;;;18.10;99.80;;;;;;5072605;28;20489;-51
2022/01/05 03:30:16;;;;;;;13.43;13.03;;;18.10;99.70;;;;;;5072531;28;20447;-51
2022/01/05 03:33:02;;;;;;;12.53;12.13;;;18.10;99.90;;;;;;5072224;28;20474;-55
2022/01/05 03:35:32;;;;;;;12.90;12.57;;;18.10;99.90;;;;;;5072263;28;20923;-52
2022/01/05 03:37:59;;;;;;;12.80;12.40;;;18.10;99.90;;;;;;5072276;28;20814;-52
2022/01/05 03:40:26;;;;;;;11.90;11.60;;;18.10;99.90;;;;;;5072490;28;20435;-50
2022/01/05 03:42:53;;;;;;;12.07;11.73;;;18.10;99.90;;;;;;5072074;28;20477;-50
2022/01/05 03:45:21;;;;;;;11.90;11.60;;;18.10;99.90;;;;;;5072274;28;20440;-53
2022/01/05 03:47:49;;;;;;;12.10;11.80;;;18.10;99.90;;;;;;5072165;28;20442;-51
2022/01/05 03:50:15;;;;;;;12.13;11.83;;;18.00;99.90;;;;;;5071686;28;20446;-51
2022/01/05 03:52:42;;;;;;;11.97;11.67;;;18.00;99.90;;;;;;5071854;28;20475;-50
2022/01/05 03:55:10;;;;;;;12.57;12.17;;;18.00;99.90;;;;;;5072073;28;20454;-52
2022/01/05 03:57:36;;;;;;;11.90;11.60;;;18.00;99.60;;;;;;5072053;28;20447;-50
2022/01/05 04:00:05;;;;;;;12.53;12.23;;;18.00;99.90;;;;;;5071801;28;20452;-55
2022/01/05 04:02:33;;;;;;;12.87;12.40;;;18.00;99.90;;;;;;5071819;28;20521;-53
2022/01/05 04:04:59;;;;;;;12.20;11.90;;;18.00;99.90;;;;;;5071908;28;20464;-50
2022/01/05 04:07:26;;;;;;;12.67;12.27;;;18.00;99.90;;;;;;5071785;28;20444;-50
2022/01/05 04:09:53;;;;;;;12.70;12.30;;;17.90;99.90;;;;;;5072036;28;20458;-49
2022/01/05 04:12:19;;;;;;;12.60;12.30;;;17.90;99.90;;;;;;5071291;28;20491;-50
2022/01/05 04:14:46;;;;;;;13.53;13.03;;;17.90;99.90;;;;;;5071373;28;20439;-51
2022/01/05 04:17:13;;;;;;;12.73;12.43;;;17.90;99.90;;;;;;5071695;28;20481;-51
2022/01/05 04:19:41;;;;;;;13.07;12.70;;;17.80;99.90;;;;;;5071694;28;20813;-51
2022/01/05 04:22:07;;;;;;;13.17;12.70;;;17.80;99.90;;;;;;5071158;28;20855;-53
2022/01/05 04:24:34;;;;;;;13.17;12.73;;;17.80;99.90;;;;;;5071631;28;20443;-52
2022/01/05 04:27:01;;;;;;;13.73;13.23;;;17.80;99.90;;;;;;5071621;28;20450;-50
2022/01/05 04:29:28;;;;;;;12.97;12.47;;;17.70;99.90;;;;;;5071645;28;20451;-50
2022/01/05 04:31:54;;;;;;;13.37;12.80;;;17.70;99.90;;;;;;5071192;28;20486;-53
2022/01/05 04:34:21;;;;;;;13.70;13.20;;;17.80;99.90;;;;;;5071505;28;20943;-51
2022/01/05 04:36:49;;;;;;;13.83;13.40;;;17.70;99.90;;;;;;5071623;28;20451;-50
2022/01/05 04:39:16;;;;;;;13.50;13.00;;;17.60;99.90;;;;;;5071175;28;20463;-50
2022/01/05 04:41:42;;;;;;;13.27;12.87;;;17.60;99.90;;;;;;5071220;28;20466;-49
2022/01/05 04:44:09;;;;;;;13.33;12.83;;;17.60;99.90;;;;;;5071492;28;20439;-51
2022/01/05 04:46:36;;;;;;;13.33;12.93;;;17.60;99.90;;;;;;5071439;28;20446;-50
2022/01/05 04:49:04;;;;;;;13.27;12.87;;;17.60;99.90;;;;;;5071406;28;20481;-50
2022/01/05 04:51:31;;;;;;;13.17;12.77;;;17.60;99.90;;;;;;5071064;28;20578;-52
2022/01/05 04:53:59;;;;;;;12.87;12.50;;;17.60;99.90;;;;;;5071363;28;20451;-51
2022/01/05 04:56:26;;;;;;;13.83;13.33;;;17.50;99.90;;;;;;5071163;28;20974;-50
2022/01/05 04:58:52;;;;;;;13.60;13.20;;;17.60;99.90;;;;;;5071328;28;20466;-51
2022/01/05 05:01:19;;;;;;;13.03;12.63;;;17.50;99.90;;;;;;5071265;28;20497;-50
2022/01/05 05:03:45;;;;;;;14.17;13.77;;;17.50;99.90;;;;;;5071015;28;20443;-50
2022/01/05 05:06:12;;;;;;;14.17;13.77;;;17.60;99.90;;;;;;5071225;28;20451;-51
2022/01/05 05:08:39;;;;;;;14.70;14.00;;;17.60;99.90;;;;;;5071405;28;20447;-50
2022/01/05 05:11:07;;;;;;;17.80;15.50;;;17.60;99.90;;;;;;5070796;28;20479;-52
2022/01/05 05:13:33;;;;;;;14.80;13.70;;;17.60;99.90;;;;;;5070402;28;20467;-54
2022/01/05 05:16:01;;;;;;;18.93;12.73;;;17.70;99.90;;;;;;5071015;28;20443;-51
2022/01/05 05:18:28;;;;;;;16.07;11.27;;;17.80;99.90;;;;;;5071182;28;20451;-51
2022/01/05 05:20:55;;;;;;;12.30;9.57;;;17.90;99.90;;;;;;5071575;28;20454;-54
2022/01/05 05:23:21;;;;;;;16.57;9.73;;;17.90;99.90;;;;;;5071202;28;20443;-50
2022/01/05 05:25:48;;;;;;;14.03;8.77;;;17.90;99.90;;;;;;5071574;28;20998;-50
2022/01/05 05:28:16;;;;;;;13.27;8.07;;;18.00;99.90;;;;;;5074540;28;20455;-49
2022/01/05 05:30:52;;;;;;;16.73;10.67;;;17.90;99.90;;;;;;5072083;28;20443;-50
2022/01/05 05:33:19;;;;;;;20.47;11.10;;;17.90;99.90;;;;;;5074121;28;21053;-51
2022/01/05 05:35:45;;;;;;;12.03;10.70;;;17.90;99.90;;;;;;5074490;28;20466;-47
2022/01/05 05:38:14;;;;;;;12.37;11.20;;;17.90;99.90;;;;;;5074653;28;20452;-48
2022/01/05 05:40:41;;;;;;;15.33;14.10;;;17.90;99.90;;;;;;5073973;28;20451;-46
2022/01/05 05:43:07;;;;;;;14.57;13.40;;;17.70;99.90;;;;;;5074080;28;20509;-53
2022/01/05 05:45:35;;;;;;;15.60;14.10;;;17.60;99.90;;;;;;5074547;28;20454;-49
2022/01/05 05:48:02;;;;;;;17.97;16.27;;;17.60;99.90;;;;;;5074385;28;20452;-49
2022/01/05 05:50:29;;;;;;;18.50;16.77;;;17.50;99.90;;;;;;5074405;28;20450;-48
2022/01/05 05:52:56;;;;;;;19.23;17.90;;;17.50;99.90;;;;;;5073989;28;20496;-49
2022/01/05 05:55:23;;;;;;;19.30;17.70;;;17.80;99.90;;;;;;5074348;28;20470;-47
2022/01/05 05:57:50;;;;;;;20.53;19.10;;;18.10;99.90;;;;;;5074446;28;20447;-51
2022/01/05 06:00:17;;;;;;;19.23;17.87;;;18.40;99.90;;;;;;5074202;28;20454;-47
2022/01/05 06:02:46;;;;;;;19.13;18.13;;;18.60;99.90;;;;;;5073957;28;20463;-47
2022/01/05 06:05:12;;;;;;;20.33;18.97;;;18.70;99.90;;;;;;5074224;28;20454;-47
2022/01/05 06:07:39;;;;;;;20.93;19.47;;;18.90;99.90;;;;;;5074123;28;20501;-48
2022/01/05 06:10:07;;;;;;;20.70;19.13;;;19.00;99.90;;;;;;5074137;28;20784;-51
2022/01/05 06:12:33;;;;;;;19.27;18.13;;;19.00;99.90;;;;;;5073546;28;20487;-52
2022/01/05 06:15:00;;;;;;;19.60;18.30;;;19.00;99.90;;;;;;5073965;28;20815;-50
2022/01/05 06:17:27;;;;;;;20.07;18.77;;;19.10;99.90;;;;;;5074057;28;20824;-49
2022/01/05 06:19:55;;;;;;;20.80;19.27;;;19.10;99.90;;;;;;5074091;28;20534;-49
2022/01/05 06:22:22;;;;;;;20.20;19.00;;;19.10;99.90;;;;;;5073581;28;20815;-49
2022/01/05 06:24:48;;;;;;;19.33;18.13;;;19.20;99.90;;;;;;5073854;28;20451;-51
2022/01/05 06:27:15;;;;;;;20.07;18.60;;;19.20;99.90;;;;;;5073724;28;20447;-50
2022/01/05 06:29:42;;;;;;;19.53;18.33;;;19.20;99.90;;;;;;5073854;28;20454;-51
2022/01/05 06:32:09;;;;;;;18.97;17.97;;;19.20;99.90;;;;;;5073390;28;20487;-48
2022/01/05 06:34:36;;;;;;;19.10;18.00;;;19.20;99.90;;;;;;5073634;28;20443;-49
2022/01/05 06:37:05;;;;;;;20.47;19.33;;;19.20;99.90;;;;;;5073334;28;20452;-52
2022/01/05 06:39:31;;;;;;;18.63;17.77;;;19.30;99.90;;;;;;5073692;28;20509;-49
2022/01/05 06:41:58;;;;;;;19.17;18.17;;;19.30;99.90;;;;;;5073128;28;20471;-49
2022/01/05 06:44:25;;;;;;;18.63;17.70;;;19.30;99.90;;;;;;5073448;28;20451;-47
2022/01/05 06:46:51;;;;;;;18.93;17.93;;;19.30;99.90;;;;;;5073482;28;20451;-48
2022/01/05 06:49:19;;;;;;;18.43;17.53;;;19.30;99.90;;;;;;5073376;28;20862;-46
2022/01/05 06:51:45;;;;;;;17.67;17.07;;;19.30;99.90;;;;;;5073111;28;20569;-47
2022/01/05 06:54:13;;;;;;;18.47;17.57;;;19.30;99.90;;;;;;5073563;28;20443;-49
2022/01/05 06:56:40;;;;;;;18.07;17.20;;;19.30;99.90;;;;;;5073187;28;20443;-49
2022/01/05 06:59:07;;;;;;;19.17;18.17;;;19.30;99.90;;;;;;5073107;28;20451;-49
2022/01/05 07:01:33;;;;;;;18.87;17.37;;;19.40;99.90;;;;;;5072918;28;20463;-49
2022/01/05 07:04:02;;;;;;;18.73;17.97;;;19.40;99.90;;;;;;5072977;28;20960;-49
2022/01/05 07:06:28;;;;;;;18.10;17.20;;;19.40;99.90;;;;;;5072987;28;20462;-50
2022/01/05 07:08:55;;;;;;;18.53;17.73;;;19.40;99.90;;;;;;5072963;28;20450;-49
2022/01/05 07:11:23;;;;;;;17.73;17.00;;;19.30;99.90;;;;;;5072685;28;21014;-50
2022/01/05 07:13:50;;;;;;;17.43;16.70;;;19.30;99.90;;;;;;5072886;28;20502;-50
2022/01/05 07:16:17;;;;;;;17.90;17.07;;;19.30;99.90;;;;;;5072790;28;20454;-51
2022/01/05 07:18:43;;;;;;;17.27;16.47;;;19.30;99.90;;;;;;5072716;28;20454;-50
2022/01/05 07:21:10;;;;;;;16.97;16.23;;;19.20;99.90;;;;;;5072751;28;20471;-50
2022/01/05 07:23:37;;;;;;;17.40;16.30;;;19.20;99.90;;;;;;5072422;28;20493;-46
2022/01/05 07:26:03;;;;;;;16.30;15.60;;;19.20;99.90;;;;;;5072493;28;20453;-48
2022/01/05 07:28:31;;;;;;;17.40;16.63;;;19.20;99.70;;;;;;5072593;28;20500;-48
2022/01/05 07:30:58;;;;;;;17.70;16.80;;;19.10;99.30;;;;;;5072373;28;20467;-48
2022/01/05 07:33:26;;;;;;;17.50;16.50;;;18.90;99.60;;;;;;5072148;28;20486;-50
2022/01/05 07:35:53;;;;;;;18.23;17.33;;;18.70;99.90;;;;;;5072465;28;20524;-49
2022/01/05 07:38:20;;;;;;;16.30;15.50;;;18.60;99.90;;;;;;5072263;28;20447;-47
2022/01/05 07:40:46;;;;;;;16.40;15.80;;;18.50;99.20;;;;;;5072186;28;20451;-48
2022/01/05 07:43:13;;;;;;;16.63;15.73;;;18.40;99.90;;;;;;5072006;28;20443;-47
2022/01/05 07:45:41;;;;;;;15.47;14.77;;;18.30;98.80;;;;;;5072178;28;20447;-48
2022/01/05 07:48:08;;;;;;;16.20;15.60;;;18.30;99.90;;;;;;5071848;28;20447;-46
2022/01/05 07:50:34;;;;;;;15.40;14.70;;;18.20;99.50;;;;;;5071960;28;20439;-46
2022/01/05 07:53:04;;;;;;;15.23;14.60;;;18.20;99.90;;;;;;5071769;28;20485;-47
2022/01/05 07:55:31;;;;;;;15.50;14.70;;;18.10;99.90;;;;;;5072075;28;20546;-46
2022/01/05 07:57:58;;;;;;;15.43;14.90;;;18.00;99.80;;;;;;5072101;28;20818;-50
2022/01/05 08:00:25;;;;;;;15.73;15.20;;;18.00;99.90;;;;;;5072055;28;20455;-48
2022/01/05 08:02:53;;;;;;;15.00;14.30;;;17.90;99.90;;;;;;5071677;28;20459;-48
2022/01/05 08:05:20;;;;;;;14.33;13.83;;;17.90;99.20;;;;;;5071978;28;20443;-47
2022/01/05 08:07:47;;;;;;;15.90;15.30;;;17.90;99.90;;;;;;5071924;28;20483;-47
2022/01/05 08:10:14;;;;;;;15.27;14.67;;;17.80;99.70;;;;;;5071801;28;20443;-47
2022/01/05 08:12:41;;;;;;;15.00;14.30;;;17.80;99.90;;;;;;5071841;28;20848;-49
2022/01/05 08:15:09;;;;;;;16.10;15.30;;;17.70;99.00;;;;;;5071827;28;20447;-47
2022/01/05 08:17:36;;;;;;;15.00;14.40;;;17.70;98.40;;;;;;5071689;28;21016;-47
2022/01/05 08:20:06;;;;;;;15.67;14.87;;;17.70;99.80;;;;;;5071636;28;20447;-46
2022/01/05 08:22:33;;;;;;;16.13;15.53;;;17.60;99.40;;;;;;5071556;28;20982;-48
2022/01/05 08:24:59;;;;;;;15.47;14.87;;;17.60;99.70;;;;;;5071588;28;20862;-48
2022/01/05 08:27:26;;;;;;;15.63;15.13;;;17.60;99.60;;;;;;5071599;28;20450;-48
2022/01/05 08:29:53;;;;;;;15.77;15.17;;;17.60;99.20;;;;;;5071593;28;20439;-49
2022/01/05 08:32:19;;;;;;;15.50;14.90;;;17.50;98.90;;;;;;5071192;28;20529;-49
2022/01/05 08:34:46;;;;;;;15.87;15.37;;;17.50;98.70;;;;;;5071431;28;20885;-50
2022/01/05 08:37:15;;;;;;;15.17;14.67;;;17.50;98.90;;;;;;5071474;28;20451;-47
2022/01/05 08:39:42;;;;;;;15.10;14.60;;;17.50;99.40;;;;;;5071464;28;20963;-46
2022/01/05 08:42:09;;;;;;;16.27;15.67;;;17.50;99.20;;;;;;5071126;28;20558;-47
2022/01/05 08:44:36;;;;;;;15.87;15.17;;;17.50;98.80;;;;;;5071491;28;20458;-47
2022/01/05 08:47:05;;;;;;;16.77;15.90;;;17.50;99.20;;;;;;5071324;28;20447;-49
2022/01/05 08:49:31;;;;;;;15.57;14.80;;;17.40;97.70;;;;;;5071429;28;20530;-47
2022/01/05 08:51:58;;;;;;;15.63;15.03;;;17.40;97.70;;;;;;5071064;28;20471;-48
2022/01/05 08:54:26;;;;;;;16.13;15.33;;;17.40;98.00;;;;;;5071375;28;20451;-49
2022/01/05 08:56:54;;;;;;;15.20;14.70;;;17.40;98.10;;;;;;5071500;28;20450;-46
2022/01/05 08:59:21;;;;;;;15.73;14.93;;;17.30;98.20;;;;;;5071286;28;20512;-50
2022/01/05 09:01:48;;;;;;;15.30;14.70;;;17.30;98.00;;;;;;5075010;28;20467;-46
2022/01/05 09:04:14;;;;;;;15.03;14.43;;;17.20;98.40;;;;;;5075231;28;20936;-49
2022/01/05 09:06:42;;;;;;;15.43;14.90;;;17.20;98.60;;;;;;5075223;28;20478;-47
2022/01/05 09:09:09;;;;;;;15.27;14.77;;;17.20;98.40;;;;;;5075310;28;20447;-49
2022/01/05 09:11:37;;;;;;;14.77;14.13;;;17.20;98.80;;;;;;5074863;28;20988;-48
2022/01/05 09:14:04;;;;;;;15.30;14.80;;;17.20;98.40;;;;;;5075012;28;20483;-47
2022/01/05 09:16:31;;;;;;;14.83;14.33;;;17.30;98.70;;;;;;5075217;28;20447;-46
2022/01/05 09:18:58;;;;;;;15.40;14.90;;;17.20;98.10;;;;;;5075098;28;20458;-49
2022/01/05 09:21:25;;;;;;;15.23;14.73;;;17.20;98.60;;;;;;5074961;28;20558;-49
2022/01/05 09:23:52;;;;;;;16.40;15.60;;;17.20;98.30;;;;;;5074857;28;20466;-49
2022/01/05 09:26:18;;;;;;;15.50;14.93;;;17.20;97.10;;;;;;5074988;28;20442;-47
2022/01/05 09:28:46;;;;;;;15.90;15.30;;;17.20;97.70;;;;;;5074865;28;20443;-46
2022/01/05 09:31:13;;;;;;;16.47;15.57;;;17.20;97.40;;;;;;5074868;28;20486;-46
2022/01/05 09:33:40;;;;;;;15.50;15.00;;;17.10;96.80;;;;;;5074665;28;20482;-48
2022/01/05 09:36:13;;;;;;;15.00;14.60;;;17.20;98.00;;;;;;5074742;28;20530;-47
2022/01/05 09:44:10;;;;;;;15.50;14.90;;;17.10;97.00;;;;;;5074448;28;20422;-46
2022/01/05 09:46:50;;;;;;;15.30;14.80;;;17.00;97.40;;;;;;5074684;28;20664;-50
2022/01/05 09:49:23;;;;;;;15.60;15.00;;;17.00;97.50;;;;;;5074692;28;20443;-47
2022/01/05 09:51:55;;;;;;;15.43;14.93;;;17.00;97.40;;;;;;5074082;28;20998;-48
2022/01/05 09:54:23;;;;;;;16.80;16.00;;;17.00;97.40;;;;;;5074346;28;20479;-50
2022/01/05 09:56:51;;;;;;;16.43;15.60;;;17.00;96.50;;;;;;5074230;28;20478;-48
2022/01/05 09:59:20;;;;;;;16.13;15.57;;;17.00;96.30;;;;;;5074308;28;20835;-48
2022/01/05 10:01:46;;;;;;;15.60;14.97;;;17.00;96.30;;;;;;5074030;28;20455;-48
2022/01/05 10:04:14;;;;;;;14.50;14.00;;;17.10;96.90;;;;;;5074202;28;20450;-48
2022/01/05 10:06:41;;;;;;;14.40;14.00;;;17.20;96.50;;;;;;5074169;28;20972;-46
2022/01/05 10:09:08;;;;;;;14.60;14.10;;;17.20;95.50;;;;;;5074052;28;20450;-46
2022/01/05 10:11:36;;;;;;;15.00;14.40;;;17.20;95.50;;;;;;5073241;28;20554;-51
2022/01/05 10:14:03;;;;;;;14.57;13.97;;;17.20;95.40;;;;;;5074112;28;20478;-50
2022/01/05 10:16:31;;;;;;;15.87;14.80;;;17.20;94.80;;;;;;5074030;28;20454;-49
2022/01/05 10:18:58;;;;;;;15.30;14.80;;;17.20;95.00;;;;;;5073851;28;20451;-49
2022/01/05 10:21:35;;;;;;;14.90;14.30;;;17.20;94.30;;;;;;5073699;28;20460;-50
2022/01/05 10:24:02;;;;;;;14.33;13.93;;;17.20;93.60;;;;;;5073820;28;20479;-50
2022/01/05 10:26:30;;;;;;;15.07;14.57;;;17.10;94.30;;;;;;5074028;28;20439;-48
2022/01/05 10:28:59;;;;;;;14.87;14.33;;;17.10;93.60;;;;;;5073802;28;20456;-50
2022/01/05 10:31:28;;;;;;;14.70;14.20;;;17.10;93.90;;;;;;5073752;28;20478;-46
2022/01/05 10:33:57;;;;;;;13.33;12.83;;;17.00;93.90;;;;;;5073572;28;20483;-48
2022/01/05 10:36:24;;;;;;;15.03;14.63;;;17.00;93.70;;;;;;5073523;28;20450;-51
2022/01/05 10:38:55;;;;;;;15.27;14.77;;;17.00;94.20;;;;;;5073008;28;20451;-49
2022/01/05 10:41:25;;;;;;;15.00;14.50;;;17.00;93.40;;;;;;5073214;28;20463;-47
2022/01/05 10:44:16;;;;;;;15.17;14.43;;;16.90;93.40;;;;;;5072958;28;20467;-51
2022/01/05 10:46:45;;;;;;;13.60;13.00;;;17.10;97.80;;;;;;5072759;28;20510;-49
2022/01/05 10:49:23;;;;;;;14.60;14.10;;;17.20;99.90;;;;;;5073367;28;20197;-49
2022/01/05 10:51:51;;;;;;;15.37;14.77;;;17.40;99.60;;;;;;5073020;28;20471;-49
2022/01/05 10:54:20;;;;;;;15.50;15.00;;;17.40;99.90;;;;;;5072881;28;20507;-47
2022/01/05 10:56:47;;;;;;;15.33;14.70;;;17.50;99.90;;;;;;5073069;28;20443;-52
2022/01/05 10:59:15;;;;;;;15.67;14.97;;;17.50;99.90;;;;;;5073154;28;20447;-53
2022/01/05 11:01:43;;;;;;;16.73;16.03;;;17.60;99.90;;;;;;5072868;28;20470;-51
2022/01/05 11:04:18;;;;;;;17.33;16.43;;;17.60;99.90;;;;;;5072718;28;20439;-50
2022/01/05 11:06:59;;;;;;;16.30;15.70;;;17.60;99.90;;;;;;5073313;28;20451;-49
2022/01/05 11:09:26;;;;;;;16.63;16.10;;;17.60;99.90;;;;;;5072896;28;20439;-47
2022/01/05 11:11:53;;;;;;;16.13;15.40;;;17.60;99.90;;;;;;5072634;28;20474;-49
2022/01/05 11:14:27;;;;;;;16.30;15.60;;;17.50;99.90;;;;;;5072612;28;20475;-48
2022/01/05 11:16:54;;;;;;;15.50;14.90;;;17.50;99.90;;;;;;5072768;28;20955;-47
2022/01/05 11:19:24;;;;;;;15.13;14.63;;;17.40;99.90;;;;;;5072663;28;20853;-49
2022/01/05 11:22:03;;;;;;;15.60;15.00;;;17.50;99.90;;;;;;5072484;28;20503;-50
2022/01/05 11:24:33;;;;;;;16.00;15.50;;;17.50;99.90;;;;;;5071823;28;20443;-49
2022/01/05 11:27:00;;;;;;;16.20;15.70;;;17.50;99.90;;;;;;5072568;28;20443;-48
2022/01/05 11:29:27;;;;;;;16.97;16.20;;;17.50;99.90;;;;;;5072345;28;20442;-48
2022/01/05 11:32:00;;;;;;;17.20;16.40;;;17.50;99.90;;;;;;5072285;28;20785;-49
2022/01/05 11:34:31;;;;;;;16.97;16.37;;;17.50;99.90;;;;;;5072470;28;20490;-48
2022/01/05 11:37:01;;;;;;;16.00;15.40;;;17.60;99.90;;;;;;5072360;28;20846;-50
2022/01/05 11:39:29;;;;;;;16.37;15.77;;;17.70;99.90;;;;;;5072369;28;20447;-47
2022/01/05 11:41:58;;;;;;;15.90;15.30;;;17.70;99.90;;;;;;5072206;28;20833;-50
2022/01/05 11:44:27;;;;;;;16.60;15.80;;;17.60;99.90;;;;;;5072273;28;20489;-51
2022/01/05 11:46:54;;;;;;;17.03;16.43;;;17.70;99.90;;;;;;5072435;28;20952;-50
2022/01/05 11:49:26;;;;;;;17.33;16.33;;;17.70;99.90;;;;;;5072383;28;20443;-48
2022/01/05 11:51:58;;;;;;;16.40;15.60;;;17.50;99.90;;;;;;5072058;28;20455;-47
2022/01/05 11:54:26;;;;;;;16.20;15.60;;;17.50;99.90;;;;;;5072118;28;20478;-47
2022/01/05 11:56:54;;;;;;;16.57;15.97;;;17.40;99.90;;;;;;5072105;28;20815;-47
2022/01/05 11:59:24;;;;;;;16.00;15.50;;;17.40;99.90;;;;;;5072057;28;20443;-47
2022/01/05 12:02:03;;;;;;;15.80;15.30;;;17.30;99.90;;;;;;5071747;28;20475;-48
2022/01/05 12:04:31;;;;;;;15.53;15.03;;;17.40;99.90;;;;;;5072063;28;20451;-48
2022/01/05 12:07:04;;;;;;;16.03;15.40;;;17.40;99.90;;;;;;5071818;28;20447;-50
2022/01/05 12:09:33;;;;;;;16.07;15.40;;;17.30;99.90;;;;;;5071946;28;20898;-48
2022/01/05 12:12:03;;;;;;;15.70;15.20;;;17.10;99.90;;;;;;5071504;28;20479;-49
2022/01/05 12:14:47;;;;;;;16.10;15.50;;;17.10;99.90;;;;;;5071899;28;20582;-49
2022/01/05 12:17:16;;;;;;;14.87;14.20;;;17.00;99.90;;;;;;5071813;28;20527;-47
2022/01/05 12:20:02;;;;;;;15.43;14.67;;;17.00;99.90;;;;;;5071723;28;20453;-46
2022/01/05 12:22:31;;;;;;;14.40;13.80;;;16.90;99.90;;;;;;5070789;28;20810;-49
2022/01/05 12:25:23;;;;;;;14.90;14.30;;;16.90;99.90;;;;;;5071749;28;20466;-51
2022/01/05 12:27:57;;;;;;;15.97;15.40;;;16.90;99.90;;;;;;5070604;28;20554;-51
2022/01/05 12:30:40;;;;;;;15.20;14.70;;;16.80;99.90;;;;;;5071918;28;20565;-48
2022/01/05 12:33:13;;;;;;;15.27;14.77;;;16.80;99.90;;;;;;5071234;28;20527;-48
2022/01/05 12:35:46;;;;;;;15.63;14.93;;;16.80;99.90;;;;;;5071355;28;20477;-49
2022/01/05 12:38:38;;;;;;;16.33;15.80;;;16.80;99.90;;;;;;5071520;28;20444;-51
2022/01/05 12:41:37;;;;;;;14.20;13.80;;;16.90;99.90;;;;;;5071714;28;20459;-51